Time;durP1;ratioP1;P1;durP2;ratioP2;P2;SDS_P1;SDS_P2;PMS_P1;PMS_P2;Temp;Humidity;BMP_temperature;BMP_pressure;BME280_temperature;BME280_humidity;BME280_pressure;Samples;Min_cycle;Max_cycle;Signal;HPM_P1;HPM_P2
2022/11/26 00:00:46;;;;;;;29.27;4.80;;;9.10;99.90;;;;;;5027825;28;20069;-73
2022/11/26 00:03:12;;;;;;;24.15;4.68;;;9.20;99.90;;;;;;5030536;28;20091;-73
2022/11/26 00:05:39;;;;;;;22.55;4.97;;;9.30;99.90;;;;;;5033851;28;20510;-73
2022/11/26 00:08:14;;;;;;;23.98;4.65;;;9.40;99.90;;;;;;5034280;28;20033;-73
2022/11/26 00:10:40;;;;;;;23.50;4.57;;;9.40;99.90;;;;;;5065345;28;20484;-72
2022/11/26 00:13:17;;;;;;;20.52;4.45;;;9.50;99.90;;;;;;5024561;28;20547;-73
2022/11/26 00:15:42;;;;;;;16.38;5.50;;;9.40;99.90;;;;;;5065431;28;20051;-73
2022/11/26 00:18:08;;;;;;;17.42;5.68;;;9.20;99.90;;;;;;5027059;28;20090;-73
2022/11/26 00:20:34;;;;;;;28.33;6.35;;;8.80;99.90;;;;;;5062065;28;20029;-72
2022/11/26 00:23:02;;;;;;;17.35;5.68;;;8.40;99.90;;;;;;5024350;28;20386;-73
2022/11/26 00:25:37;;;;;;;15.48;6.50;;;8.10;99.90;;;;;;5022297;28;20030;-73
2022/11/26 00:28:13;;;;;;;19.17;6.32;;;7.90;99.90;;;;;;5029241;28;20021;-71
2022/11/26 00:30:38;;;;;;;16.30;6.15;;;7.70;99.90;;;;;;5034073;28;20861;-72
2022/11/26 00:33:04;;;;;;;21.27;5.88;;;7.60;99.90;;;;;;5035344;28;20068;-72
2022/11/26 00:35:29;;;;;;;18.13;5.68;;;7.50;99.90;;;;;;5024464;28;20034;-73
2022/11/26 00:37:57;;;;;;;13.65;6.03;;;7.30;99.90;;;;;;5045310;28;20029;-73
2022/11/26 00:40:25;;;;;;;19.80;6.45;;;7.20;99.90;;;;;;5023998;28;20037;-73
2022/11/26 00:42:52;;;;;;;17.42;6.43;;;7.20;99.90;;;;;;5028865;28;20018;-73
2022/11/26 00:45:26;;;;;;;25.67;6.57;;;7.10;99.90;;;;;;5025326;28;20397;-73
2022/11/26 00:47:52;;;;;;;20.58;6.05;;;7.10;99.90;;;;;;5033141;28;20124;-72
2022/11/26 00:50:23;;;;;;;20.80;6.70;;;7.10;99.90;;;;;;5035694;28;20048;-74
2022/11/26 00:52:52;;;;;;;17.83;6.30;;;7.10;99.90;;;;;;5010721;28;20040;-72
2022/11/26 00:55:31;;;;;;;14.63;6.20;;;7.10;99.90;;;;;;5025716;28;20030;-73
2022/11/26 00:57:57;;;;;;;17.13;6.23;;;7.10;99.90;;;;;;5016955;28;20033;-73
2022/11/26 01:00:26;;;;;;;15.90;6.50;;;7.10;99.90;;;;;;5013591;28;20029;-73
2022/11/26 01:02:52;;;;;;;17.38;5.90;;;7.10;99.90;;;;;;5019025;28;20052;-72
2022/11/26 01:05:19;;;;;;;14.07;5.95;;;7.00;99.90;;;;;;5013901;28;20080;-71
2022/11/26 01:07:45;;;;;;;18.65;6.43;;;6.90;99.90;;;;;;5017275;28;20033;-73
2022/11/26 01:10:23;;;;;;;16.20;6.45;;;6.90;99.90;;;;;;5019317;28;20040;-73
2022/11/26 01:12:51;;;;;;;13.32;5.72;;;6.90;99.90;;;;;;5011479;28;20480;-72
2022/11/26 01:15:19;;;;;;;17.35;5.95;;;6.90;99.90;;;;;;5012931;28;20025;-73
2022/11/26 01:17:44;;;;;;;15.43;5.47;;;6.90;99.90;;;;;;5013719;28;20049;-72
2022/11/26 01:20:20;;;;;;;21.92;6.00;;;6.90;99.90;;;;;;5024093;28;20124;-73
2022/11/26 01:22:46;;;;;;;24.60;6.72;;;7.00;99.90;;;;;;5030990;28;20087;-73
2022/11/26 01:25:12;;;;;;;27.17;5.97;;;7.00;99.90;;;;;;5012020;28;20030;-73
2022/11/26 01:27:37;;;;;;;16.02;5.68;;;7.00;99.90;;;;;;5019250;28;20029;-71
2022/11/26 01:30:10;;;;;;;24.55;6.47;;;7.10;99.90;;;;;;5017281;28;20042;-73
2022/11/26 01:32:36;;;;;;;17.17;5.28;;;7.10;99.90;;;;;;5024530;28;20076;-73
2022/11/26 01:35:01;;;;;;;22.52;6.13;;;7.10;99.90;;;;;;5020878;28;20038;-72
2022/11/26 01:37:27;;;;;;;18.95;6.15;;;7.10;99.90;;;;;;5017038;28;20059;-72
2022/11/26 01:39:52;;;;;;;18.00;5.25;;;7.10;99.90;;;;;;5016053;28;20041;-73
2022/11/26 01:42:28;;;;;;;14.23;5.90;;;7.00;99.90;;;;;;5010618;28;20072;-73
2022/11/26 01:44:53;;;;;;;18.95;6.07;;;7.10;99.90;;;;;;5009414;28;20163;-73
2022/11/26 01:47:27;;;;;;;20.67;6.47;;;7.10;99.90;;;;;;5008821;28;20579;-74
2022/11/26 01:50:27;;;;;;;19.52;5.35;;;7.00;99.90;;;;;;5013475;28;20589;-72
2022/11/26 01:52:58;;;;;;;;;;;7.10;99.90;;;;;;5014760;28;20056;-72
2022/11/26 01:55:25;;;;;;;16.25;5.70;;;7.10;99.90;;;;;;5009790;28;19941;-74
2022/11/26 01:57:51;;;;;;;18.60;5.50;;;7.10;99.90;;;;;;5014637;28;20132;-73
2022/11/26 02:00:17;;;;;;;15.63;6.18;;;7.10;99.90;;;;;;5010287;28;20459;-73
2022/11/26 02:02:44;;;;;;;17.77;6.47;;;7.10;99.90;;;;;;5032487;28;20095;-72
2022/11/26 02:05:19;;;;;;;18.95;6.38;;;7.10;99.90;;;;;;5008886;28;20026;-73
2022/11/26 02:07:46;;;;;;;21.52;6.80;;;7.10;99.90;;;;;;5014802;28;20042;-74
2022/11/26 02:10:13;;;;;;;14.88;6.07;;;7.10;99.90;;;;;;5011055;28;20038;-74
2022/11/26 02:12:39;;;;;;;19.83;6.95;;;7.10;99.90;;;;;;5013949;28;20102;-74
2022/11/26 02:15:06;;;;;;;22.98;7.35;;;7.20;99.90;;;;;;5022313;28;20034;-73
2022/11/26 02:17:40;;;;;;;20.83;7.47;;;7.10;99.90;;;;;;5007653;28;20392;-74
2022/11/26 02:20:41;;;;;;;18.00;6.65;;;7.10;99.90;;;;;;5032851;28;20039;-74
2022/11/26 02:23:32;;;;;;;20.95;6.90;;;7.10;99.90;;;;;;5031297;28;20504;-73
2022/11/26 02:26:20;;;;;;;19.67;6.82;;;7.10;99.90;;;;;;5042294;28;20058;-74
2022/11/26 02:29:01;;;;;;;13.80;6.00;;;7.10;99.90;;;;;;5011793;28;20566;-74
2022/11/26 02:32:02;;;;;;;16.50;6.38;;;7.10;99.90;;;;;;5029399;28;20025;-73
2022/11/26 02:34:49;;;;;;;23.50;6.07;;;7.10;99.90;;;;;;5020103;28;20041;-74
2022/11/26 02:37:22;;;;;;;20.00;5.75;;;7.10;99.90;;;;;;5020053;28;20555;-74
2022/11/26 02:39:47;;;;;;;14.88;5.00;;;7.10;99.90;;;;;;5014305;28;20480;-74
2022/11/26 02:42:29;;;;;;;14.68;5.47;;;7.10;99.90;;;;;;5015569;28;20045;-73
2022/11/26 02:44:57;;;;;;;14.13;4.97;;;7.20;99.90;;;;;;5010441;28;20128;-73
2022/11/26 02:47:25;;;;;;;13.45;4.53;;;7.20;99.90;;;;;;5014803;28;20036;-74
2022/11/26 02:49:53;;;;;;;16.02;4.65;;;7.20;99.90;;;;;;5015306;28;20059;-75
2022/11/26 02:52:20;;;;;;;18.90;4.70;;;7.10;99.90;;;;;;5014910;28;20029;-75
2022/11/26 02:54:48;;;;;;;15.15;4.43;;;7.10;99.90;;;;;;5030300;28;20034;-74
2022/11/26 02:57:16;;;;;;;22.90;4.70;;;7.10;99.90;;;;;;5017600;28;20129;-74
2022/11/26 02:59:42;;;;;;;16.13;5.38;;;7.10;99.90;;;;;;5041417;28;20523;-74
2022/11/26 03:02:30;;;;;;;20.88;5.32;;;7.10;99.90;;;;;;5041061;28;20035;-74
2022/11/26 03:04:58;;;;;;;21.02;5.07;;;7.10;99.90;;;;;;5008108;28;20064;-73
2022/11/26 03:07:25;;;;;;;16.48;4.40;;;7.10;99.90;;;;;;5013179;28;20078;-74
2022/11/26 03:09:57;;;;;;;19.80;5.80;;;7.10;99.90;;;;;;5039854;28;20038;-73
2022/11/26 03:12:23;;;;;;;20.55;4.82;;;7.10;99.90;;;;;;5026551;28;20068;-73
2022/11/26 03:14:50;;;;;;;21.20;4.65;;;7.10;99.90;;;;;;5015237;28;20724;-74
2022/11/26 03:17:15;;;;;;;17.95;5.20;;;7.10;99.90;;;;;;5021715;28;20029;-74
2022/11/26 03:19:42;;;;;;;20.65;5.20;;;7.10;99.90;;;;;;5011869;28;20037;-73
2022/11/26 03:22:08;;;;;;;20.30;5.25;;;7.10;99.90;;;;;;5023987;28;20570;-75
2022/11/26 03:24:34;;;;;;;21.65;5.43;;;7.10;99.90;;;;;;5006505;28;20042;-73
2022/11/26 03:27:00;;;;;;;27.63;6.05;;;7.10;99.90;;;;;;5013196;28;20036;-74
2022/11/26 03:29:25;;;;;;;23.88;5.30;;;7.10;99.90;;;;;;5006889;28;20030;-74
2022/11/26 03:31:51;;;;;;;20.52;5.32;;;7.10;99.90;;;;;;5016396;28;20365;-74
2022/11/26 03:34:16;;;;;;;23.65;6.18;;;7.10;99.90;;;;;;5013523;28;20084;-74
2022/11/26 03:36:42;;;;;;;25.67;5.57;;;7.10;99.90;;;;;;5013995;28;20069;-75
2022/11/26 03:39:08;;;;;;;20.40;5.00;;;7.10;99.90;;;;;;5027151;28;20057;-74
2022/11/26 03:41:34;;;;;;;17.60;5.07;;;7.00;99.90;;;;;;5026134;28;20034;-72
2022/11/26 03:43:59;;;;;;;12.20;5.15;;;7.00;99.90;;;;;;5030238;28;20037;-75
2022/11/26 03:46:25;;;;;;;18.38;4.97;;;7.00;99.90;;;;;;5021161;28;20042;-74
2022/11/26 03:48:51;;;;;;;20.58;6.00;;;7.00;99.90;;;;;;5014115;28;20118;-74
2022/11/26 03:51:16;;;;;;;19.00;5.05;;;6.90;99.90;;;;;;5013704;28;20035;-74
2022/11/26 03:53:42;;;;;;;14.65;4.82;;;6.90;99.90;;;;;;5011762;28;20369;-74
2022/11/26 03:56:07;;;;;;;15.15;5.00;;;6.90;99.90;;;;;;5020853;28;20156;-74
2022/11/26 03:58:33;;;;;;;17.27;4.50;;;6.90;99.90;;;;;;5021181;28;20026;-74
2022/11/26 04:01:00;;;;;;;18.05;4.57;;;6.80;99.90;;;;;;5015117;28;20068;-75
2022/11/26 04:03:25;;;;;;;11.38;4.03;;;6.90;99.90;;;;;;5016884;28;20049;-75
2022/11/26 04:05:51;;;;;;;17.38;4.97;;;6.90;99.90;;;;;;5012901;28;20025;-74
2022/11/26 04:08:16;;;;;;;19.95;5.20;;;6.90;99.90;;;;;;5011533;28;20083;-74
2022/11/26 04:10:42;;;;;;;18.60;4.78;;;6.90;99.90;;;;;;5027506;28;20055;-73
2022/11/26 04:13:08;;;;;;;21.55;5.28;;;6.90;99.90;;;;;;5016599;28;20814;-75
2022/11/26 04:15:34;;;;;;;15.32;3.90;;;6.90;99.90;;;;;;5039758;28;20040;-72
2022/11/26 04:17:59;;;;;;;20.20;4.80;;;7.00;99.90;;;;;;5011213;28;20440;-74
2022/11/26 04:20:25;;;;;;;22.13;4.18;;;7.00;99.90;;;;;;5014044;28;20037;-72
2022/11/26 04:22:50;;;;;;;16.13;4.55;;;7.00;99.90;;;;;;5044294;28;20037;-74
2022/11/26 04:25:16;;;;;;;17.88;4.32;;;7.10;99.90;;;;;;5007796;28;20121;-74
2022/11/26 04:27:42;;;;;;;19.35;4.85;;;7.00;99.90;;;;;;5017581;28;20033;-75
2022/11/26 04:30:08;;;;;;;15.13;4.47;;;7.10;99.90;;;;;;5011088;28;20034;-74
2022/11/26 04:32:34;;;;;;;17.58;4.78;;;7.00;99.90;;;;;;5015500;28;20068;-74
2022/11/26 04:34:59;;;;;;;15.57;4.82;;;7.10;99.90;;;;;;5011380;28;20530;-75
2022/11/26 04:37:25;;;;;;;21.00;5.32;;;7.10;99.90;;;;;;5032222;28;20377;-73
2022/11/26 04:39:50;;;;;;;17.02;4.57;;;7.00;99.90;;;;;;5014133;28;20034;-74
2022/11/26 04:42:16;;;;;;;17.08;4.35;;;7.00;99.90;;;;;;5021892;28;20132;-74
2022/11/26 04:44:42;;;;;;;14.60;4.50;;;7.00;99.90;;;;;;5021708;28;20036;-75
2022/11/26 04:47:07;;;;;;;15.15;4.22;;;7.00;99.90;;;;;;5016963;28;20061;-73
2022/11/26 04:49:33;;;;;;;19.40;4.72;;;7.00;99.90;;;;;;5030594;28;20029;-75
2022/11/26 04:51:58;;;;;;;16.52;4.25;;;7.10;99.90;;;;;;5027341;28;20459;-74
2022/11/26 04:54:24;;;;;;;14.52;4.28;;;7.20;99.90;;;;;;5021682;28;20041;-74
2022/11/26 04:56:50;;;;;;;17.45;4.97;;;7.30;99.90;;;;;;5014926;28;20037;-73
2022/11/26 04:59:15;;;;;;;20.77;5.03;;;7.30;99.90;;;;;;5028882;28;20499;-74
2022/11/26 05:01:41;;;;;;;24.13;5.72;;;7.40;99.90;;;;;;5016672;28;20045;-74
2022/11/26 05:04:07;;;;;;;16.00;4.50;;;7.40;99.90;;;;;;5012999;28;20029;-73
2022/11/26 05:06:32;;;;;;;19.13;4.53;;;7.40;99.90;;;;;;5015172;28;20428;-75
2022/11/26 05:08:58;;;;;;;14.63;4.30;;;7.50;99.90;;;;;;5022896;28;20049;-75
2022/11/26 05:11:24;;;;;;;20.10;5.07;;;7.50;99.90;;;;;;5019110;28;20041;-73
2022/11/26 05:13:49;;;;;;;18.75;4.55;;;7.60;99.90;;;;;;5019086;28;20481;-73
2022/11/26 05:16:15;;;;;;;15.88;4.55;;;7.60;99.90;;;;;;5018392;28;20038;-74
2022/11/26 05:18:41;;;;;;;15.73;4.43;;;7.60;99.90;;;;;;5015272;28;20113;-74
2022/11/26 05:21:07;;;;;;;14.88;4.03;;;7.70;99.90;;;;;;5017236;28;20037;-72
2022/11/26 05:23:32;;;;;;;19.83;2.78;;;7.70;99.90;;;;;;5028944;28;20052;-74
2022/11/26 05:25:58;;;;;;;20.63;2.92;;;7.90;99.90;;;;;;5053189;28;20037;-74
2022/11/26 05:28:24;;;;;;;18.83;3.15;;;8.50;99.90;;;;;;5029932;28;20033;-73
2022/11/26 05:30:56;;;;;;;21.98;3.05;;;8.90;99.90;;;;;;5021233;28;20902;-72
2022/11/26 05:33:22;;;;;;;19.92;2.00;;;9.10;99.90;;;;;;5039496;28;20400;-73
2022/11/26 05:35:48;;;;;;;16.45;2.22;;;9.20;99.90;;;;;;5024337;28;20578;-73
2022/11/26 05:38:13;;;;;;;16.73;2.88;;;9.30;99.90;;;;;;5016267;28;20110;-74
2022/11/26 05:40:39;;;;;;;18.98;2.40;;;9.50;99.90;;;;;;5042653;28;20442;-73
2022/11/26 05:43:04;;;;;;;19.00;2.13;;;9.60;99.90;;;;;;5026773;28;20639;-74
2022/11/26 05:45:30;;;;;;;16.92;2.13;;;9.60;99.90;;;;;;5029889;28;20037;-74
2022/11/26 05:47:55;;;;;;;14.18;2.10;;;9.70;99.90;;;;;;5011835;28;20038;-74
2022/11/26 05:50:21;;;;;;;18.15;2.45;;;9.70;99.90;;;;;;5031036;28;20029;-75
2022/11/26 05:52:47;;;;;;;14.02;2.58;;;9.80;99.90;;;;;;5012619;28;20037;-73
2022/11/26 05:55:12;;;;;;;19.27;3.15;;;9.80;99.90;;;;;;5019629;28;20570;-73
2022/11/26 05:57:38;;;;;;;24.77;3.17;;;9.90;99.90;;;;;;5025384;28;20026;-73
2022/11/26 06:00:06;;;;;;;17.73;3.40;;;9.80;99.90;;;;;;5010953;28;20053;-75
2022/11/26 06:02:32;;;;;;;20.92;3.20;;;9.90;99.90;;;;;;5013084;28;20030;-74
2022/11/26 06:04:57;;;;;;;18.13;2.70;;;9.80;99.90;;;;;;5013297;28;20060;-74
2022/11/26 06:07:23;;;;;;;18.98;3.15;;;9.80;99.90;;;;;;5020944;28;20049;-73
2022/11/26 06:09:48;;;;;;;22.52;3.33;;;9.90;99.90;;;;;;5015204;28;20068;-74
2022/11/26 06:12:14;;;;;;;17.75;2.72;;;9.80;99.90;;;;;;5020686;28;20033;-73
2022/11/26 06:14:39;;;;;;;22.25;2.55;;;9.90;99.90;;;;;;5010291;28;20049;-74
2022/11/26 06:17:05;;;;;;;18.63;2.22;;;9.80;99.90;;;;;;5009075;28;20041;-73
2022/11/26 06:19:30;;;;;;;13.95;2.03;;;9.80;99.90;;;;;;5015965;28;20370;-75
2022/11/26 06:21:56;;;;;;;17.55;2.20;;;9.80;99.90;;;;;;5008517;28;20042;-73
2022/11/26 06:24:22;;;;;;;14.13;2.22;;;9.90;99.90;;;;;;5014349;28;20072;-73
2022/11/26 06:26:47;;;;;;;15.90;2.20;;;9.90;99.90;;;;;;5012553;28;20034;-74
2022/11/26 06:29:13;;;;;;;14.45;2.08;;;9.80;99.90;;;;;;5028359;28;20395;-73
2022/11/26 06:31:38;;;;;;;15.15;2.30;;;9.90;99.90;;;;;;5018491;28;20030;-75
2022/11/26 06:34:04;;;;;;;17.33;2.45;;;9.90;99.90;;;;;;5040568;28;20121;-74
2022/11/26 06:36:29;;;;;;;15.55;2.40;;;10.00;99.90;;;;;;5016715;28;20678;-75
2022/11/26 06:38:55;;;;;;;16.58;2.55;;;10.00;99.90;;;;;;5014821;28;20808;-73
2022/11/26 06:41:21;;;;;;;21.88;3.20;;;10.00;99.90;;;;;;5019681;28;20038;-74
2022/11/26 06:43:46;;;;;;;15.45;1.90;;;10.00;99.90;;;;;;5005995;28;20045;-75
2022/11/26 06:46:12;;;;;;;15.70;2.08;;;10.10;99.90;;;;;;5007938;28;20034;-75
2022/11/26 06:48:38;;;;;;;17.95;2.53;;;10.20;99.90;;;;;;5007566;28;20052;-73
2022/11/26 06:51:08;;;;;;;16.13;2.33;;;10.30;99.90;;;;;;5047560;28;20311;-75
2022/11/26 06:53:34;;;;;;;15.93;2.38;;;10.30;99.90;;;;;;5033253;28;20115;-75
2022/11/26 06:56:06;;;;;;;21.42;3.33;;;10.40;99.90;;;;;;5045053;28;20503;-76
2022/11/26 06:58:32;;;;;;;18.90;2.38;;;10.40;99.90;;;;;;5008255;28;20064;-75
2022/11/26 07:00:57;;;;;;;18.90;2.88;;;10.40;99.90;;;;;;5014981;28;20045;-75
2022/11/26 07:03:24;;;;;;;14.85;2.28;;;10.40;99.90;;;;;;5013060;28;20090;-75
2022/11/26 07:05:50;;;;;;;15.18;2.42;;;10.40;99.90;;;;;;5020261;28;20034;-75
2022/11/26 07:08:15;;;;;;;17.13;2.88;;;10.40;99.90;;;;;;5017875;28;20037;-74
2022/11/26 07:10:41;;;;;;;18.88;2.85;;;10.50;99.90;;;;;;5016753;28;20380;-75
2022/11/26 07:13:07;;;;;;;18.20;2.80;;;10.50;99.90;;;;;;5013340;28;20053;-73
2022/11/26 07:15:33;;;;;;;19.55;2.90;;;10.60;99.90;;;;;;5013199;28;20072;-75
2022/11/26 07:17:58;;;;;;;17.02;2.58;;;10.70;99.90;;;;;;5010984;28;20083;-75
2022/11/26 07:20:24;;;;;;;18.77;2.40;;;10.70;99.90;;;;;;5029073;28;20029;-75
2022/11/26 07:22:50;;;;;;;23.05;3.17;;;10.80;99.90;;;;;;5011902;28;20069;-75
2022/11/26 07:25:16;;;;;;;22.17;3.42;;;10.70;99.90;;;;;;5015544;28;20036;-75
2022/11/26 07:27:41;;;;;;;26.27;3.28;;;10.60;99.90;;;;;;5024388;28;20045;-75
2022/11/26 07:30:08;;;;;;;20.88;2.83;;;10.50;99.90;;;;;;5013303;28;20033;-76
2022/11/26 07:32:33;;;;;;;22.92;2.42;;;10.50;99.90;;;;;;5011864;28;20026;-75
2022/11/26 07:35:00;;;;;;;17.58;2.75;;;10.40;99.90;;;;;;5032542;28;20075;-74
2022/11/26 07:37:26;;;;;;;19.60;3.08;;;10.30;99.90;;;;;;5016135;28;20029;-74
2022/11/26 07:39:52;;;;;;;16.45;2.90;;;10.20;99.90;;;;;;5017597;28;20091;-75
2022/11/26 07:42:17;;;;;;;20.40;2.70;;;10.20;99.90;;;;;;5021583;28;20029;-76
2022/11/26 07:44:43;;;;;;;17.38;2.58;;;10.20;99.90;;;;;;5015943;28;20040;-73
2022/11/26 07:47:08;;;;;;;31.67;3.10;;;10.20;99.90;;;;;;5022166;28;20034;-76
2022/11/26 07:49:34;;;;;;;19.02;2.58;;;10.30;99.90;;;;;;5021731;28;20026;-75
2022/11/26 07:51:59;;;;;;;16.55;2.35;;;10.30;99.90;;;;;;5020365;28;20586;-74
2022/11/26 07:54:25;;;;;;;13.98;2.60;;;10.40;99.90;;;;;;5021488;28;20029;-74
2022/11/26 07:56:50;;;;;;;14.27;2.38;;;10.40;99.90;;;;;;5016538;28;20030;-74
2022/11/26 07:59:16;;;;;;;18.75;2.83;;;10.40;99.90;;;;;;5022142;28;20586;-73
2022/11/26 08:01:42;;;;;;;23.17;2.90;;;10.50;99.90;;;;;;5018142;28;20040;-74
2022/11/26 08:04:07;;;;;;;23.92;3.05;;;10.50;99.90;;;;;;5017241;28;20030;-74
2022/11/26 08:06:33;;;;;;;26.00;2.85;;;10.60;99.90;;;;;;5014832;28;20044;-74
2022/11/26 08:09:01;;;;;;;13.38;2.15;;;10.60;99.90;;;;;;5018930;28;20583;-76
2022/11/26 08:11:28;;;;;;;16.88;2.78;;;10.80;99.90;;;;;;5019820;28;20025;-74
2022/11/26 08:13:56;;;;;;;15.30;2.38;;;10.90;99.90;;;;;;5017898;28;20037;-76
2022/11/26 08:16:22;;;;;;;18.02;3.42;;;11.00;99.90;;;;;;5018453;28;20059;-74
2022/11/26 08:18:51;;;;;;;14.45;2.65;;;11.10;99.90;;;;;;5018319;28;20033;-73
2022/11/26 08:21:17;;;;;;;18.27;2.35;;;11.10;99.90;;;;;;5015800;28;20026;-74
2022/11/26 08:23:42;;;;;;;23.90;3.08;;;11.10;99.90;;;;;;5020403;28;20527;-75
2022/11/26 08:26:11;;;;;;;15.70;2.80;;;11.20;99.90;;;;;;5014639;28;20114;-72
2022/11/26 08:28:36;;;;;;;18.55;2.72;;;11.20;99.90;;;;;;5021449;28;20483;-75
2022/11/26 08:31:07;;;;;;;15.85;3.10;;;11.30;99.90;;;;;;5020379;28;20045;-74
2022/11/26 08:33:34;;;;;;;17.92;2.75;;;11.40;99.90;;;;;;5023995;28;20030;-75
2022/11/26 08:36:00;;;;;;;19.75;2.80;;;11.40;99.90;;;;;;5011588;28;20034;-75
2022/11/26 08:38:27;;;;;;;23.65;3.15;;;11.50;99.90;;;;;;5059816;28;20029;-75
2022/11/26 08:40:53;;;;;;;19.30;2.72;;;11.50;99.90;;;;;;5018681;28;20455;-75
2022/11/26 08:43:20;;;;;;;16.40;2.58;;;11.60;99.90;;;;;;5019522;28;20038;-75
2022/11/26 08:45:57;;;;;;;21.38;2.72;;;11.70;99.90;;;;;;5045176;28;20034;-75
2022/11/26 08:48:24;;;;;;;16.25;2.50;;;11.80;99.90;;;;;;5019492;28;20048;-74
2022/11/26 08:50:50;;;;;;;18.25;2.88;;;11.80;99.90;;;;;;5025639;28;20546;-75
2022/11/26 08:53:16;;;;;;;22.05;2.97;;;11.80;99.90;;;;;;5027693;28;20027;-73
2022/11/26 08:55:41;;;;;;;21.20;2.92;;;11.80;99.90;;;;;;5053035;28;20026;-75
2022/11/26 08:58:07;;;;;;;21.00;2.92;;;11.80;99.90;;;;;;5018989;28;20025;-75
2022/11/26 09:00:33;;;;;;;19.48;2.78;;;11.90;99.90;;;;;;5026671;28;20041;-75
2022/11/26 09:02:59;;;;;;;19.83;2.95;;;12.00;99.90;;;;;;5020714;28;20078;-73
2022/11/26 09:05:25;;;;;;;15.18;2.85;;;12.10;99.90;;;;;;5026595;28;20029;-74
2022/11/26 09:07:51;;;;;;;14.77;2.42;;;12.30;99.90;;;;;;5026846;28;20030;-74
2022/11/26 09:10:16;;;;;;;13.00;2.33;;;12.70;99.90;;;;;;5021384;28;20091;-74
2022/11/26 09:12:42;;;;;;;13.75;2.58;;;13.00;99.90;;;;;;5025279;28;20034;-72
2022/11/26 09:15:08;;;;;;;14.57;2.50;;;13.60;99.90;;;;;;5024028;28;20053;-74
2022/11/26 09:17:34;;;;;;;19.23;2.88;;;14.20;99.90;;;;;;5031273;28;20029;-73
2022/11/26 09:20:00;;;;;;;16.23;2.20;;;14.70;99.90;;;;;;5020948;28;20044;-74
2022/11/26 09:22:25;;;;;;;13.63;2.65;;;14.70;99.90;;;;;;5043726;28;20035;-75
2022/11/26 09:24:51;;;;;;;13.98;2.70;;;14.70;99.90;;;;;;5023283;28;20046;-75
2022/11/26 09:27:17;;;;;;;20.67;2.85;;;14.60;99.90;;;;;;5023675;28;20120;-73
2022/11/26 09:29:42;;;;;;;16.08;2.45;;;14.80;99.90;;;;;;5060159;28;20053;-74
2022/11/26 09:32:08;;;;;;;16.50;2.65;;;15.20;99.90;;;;;;5029840;28;20419;-74
2022/11/26 09:34:35;;;;;;;18.45;2.55;;;15.50;99.90;;;;;;5034963;28;20035;-76
2022/11/26 09:37:00;;;;;;;19.15;2.40;;;15.60;99.90;;;;;;5034090;28;20072;-77
2022/11/26 09:39:27;;;;;;;16.65;2.30;;;15.60;99.90;;;;;;5031420;28;20507;-75
2022/11/26 09:41:59;;;;;;;20.75;3.40;;;15.40;99.90;;;;;;5037484;28;20484;-75
2022/11/26 09:44:56;;;;;;;17.42;2.95;;;15.50;99.90;;;;;;5029096;28;20025;-74
2022/11/26 09:47:37;;;;;;;15.85;2.90;;;15.80;99.90;;;;;;5031122;28;20030;-73
2022/11/26 09:50:28;;;;;;;17.67;2.90;;;16.00;99.90;;;;;;5022588;28;20068;-76
2022/11/26 09:52:59;;;;;;;15.95;2.63;;;15.80;99.90;;;;;;5052789;28;20043;-76
2022/11/26 09:55:39;;;;;;;16.05;3.00;;;15.40;99.90;;;;;;5025685;28;20033;-73
2022/11/26 09:58:49;;;;;;;21.40;3.42;;;14.90;99.90;;;;;;5030687;28;20060;-75
2022/11/26 10:01:18;;;;;;;13.05;2.50;;;14.60;99.90;;;;;;5019178;28;20180;-75
2022/11/26 10:03:43;;;;;;;17.30;2.85;;;14.30;99.90;;;;;;5013746;28;20073;-75
2022/11/26 10:06:47;;;;;;;19.52;3.17;;;14.20;99.90;;;;;;5024345;28;20065;-77
2022/11/26 10:09:16;;;;;;;14.20;2.13;;;14.20;99.90;;;;;;5008139;28;20030;-79
2022/11/26 10:12:03;;;;;;;20.15;2.55;;;14.40;99.90;;;;;;5022474;28;20080;-76
2022/11/26 10:14:41;;;;;;;17.92;2.78;;;14.50;99.90;;;;;;5018326;28;20076;-77
2022/11/26 10:17:28;;;;;;;16.88;3.13;;;14.40;99.90;;;;;;5014202;28;20040;-77
2022/11/26 10:19:53;;;;;;;15.15;2.50;;;14.30;99.90;;;;;;5009319;28;20077;-76
2022/11/26 10:22:28;;;;;;;17.15;2.90;;;14.20;99.90;;;;;;5007713;28;20040;-74
2022/11/26 10:24:57;;;;;;;16.60;2.75;;;14.20;99.90;;;;;;5022425;28;20096;-77
2022/11/26 10:27:26;;;;;;;14.73;2.13;;;14.20;99.90;;;;;;5008658;28;20041;-76
2022/11/26 10:30:14;;;;;;;16.83;3.17;;;14.30;99.90;;;;;;5008249;28;20038;-74
2022/11/26 10:32:42;;;;;;;19.60;2.63;;;14.20;99.90;;;;;;5007950;28;20277;-75
2022/11/26 10:35:20;;;;;;;18.58;2.80;;;14.20;99.90;;;;;;5008184;28;20034;-74
2022/11/26 10:37:46;;;;;;;12.13;1.60;;;14.10;99.90;;;;;;5007913;28;20030;-75
2022/11/26 10:40:24;;;;;;;11.27;2.15;;;14.10;99.90;;;;;;5038870;28;20443;-75
2022/11/26 10:43:17;;;;;;;18.20;2.38;;;14.10;99.90;;;;;;5022043;28;20108;-76
2022/11/26 10:45:49;;;;;;;16.23;2.25;;;14.10;99.90;;;;;;5006684;28;20034;-75
2022/11/26 10:48:17;;;;;;;16.05;2.10;;;14.00;99.90;;;;;;5008437;28;20124;-76
2022/11/26 10:50:58;;;;;;;14.07;2.10;;;13.90;99.90;;;;;;5011072;28;20045;-76
2022/11/26 10:53:25;;;;;;;13.65;1.90;;;14.10;99.90;;;;;;5008241;28;20064;-77
2022/11/26 10:55:54;;;;;;;12.30;1.95;;;14.20;99.90;;;;;;5008002;28;20065;-77
2022/11/26 10:58:26;;;;;;;16.20;2.27;;;14.30;99.90;;;;;;5006433;28;20025;-75
2022/11/26 11:01:01;;;;;;;13.85;1.88;;;14.40;99.90;;;;;;5005871;28;20279;-76
2022/11/26 11:03:30;;;;;;;14.23;2.33;;;14.50;99.90;;;;;;5005960;28;20038;-76
2022/11/26 11:06:35;;;;;;;17.00;3.05;;;14.50;99.90;;;;;;5005558;28;20030;-78
2022/11/26 11:09:24;;;;;;;14.48;1.85;;;14.60;99.90;;;;;;4996354;28;20037;-75
2022/11/26 11:12:10;;;;;;;13.48;2.20;;;14.60;99.90;;;;;;5008006;28;20022;-76
2022/11/26 11:14:36;;;;;;;11.23;1.90;;;14.60;99.90;;;;;;5003875;28;20038;-78
2022/11/26 11:17:03;;;;;;;14.40;1.92;;;14.60;99.90;;;;;;5033360;28;20033;-76
2022/11/26 11:19:30;;;;;;;12.80;1.88;;;14.50;99.90;;;;;;5038872;28;20030;-77
2022/11/26 11:21:56;;;;;;;13.20;2.17;;;14.50;99.90;;;;;;5038457;28;20137;-78
2022/11/26 11:24:26;;;;;;;18.85;2.25;;;14.40;99.90;;;;;;5007090;28;20053;-77
2022/11/26 11:26:57;;;;;;;16.25;2.40;;;14.40;99.90;;;;;;5005687;28;20030;-77
2022/11/26 11:29:32;;;;;;;14.13;2.20;;;14.40;99.90;;;;;;5006780;28;20429;-78
2022/11/26 11:32:01;;;;;;;12.93;1.83;;;14.40;99.90;;;;;;5006798;28;20036;-77
2022/11/26 11:34:38;;;;;;;17.05;2.47;;;14.50;99.90;;;;;;5005478;28;20484;-78
2022/11/26 11:37:16;;;;;;;13.27;1.92;;;14.50;99.90;;;;;;5006771;28;20113;-74
2022/11/26 11:39:42;;;;;;;14.07;1.98;;;14.40;99.90;;;;;;5006972;28;20038;-74
2022/11/26 11:42:27;;;;;;;12.05;2.35;;;14.40;99.90;;;;;;5007523;28;20033;-75
2022/11/26 11:44:55;;;;;;;14.77;2.60;;;14.50;99.90;;;;;;5007322;28;20030;-77
2022/11/26 11:47:42;;;;;;;14.45;1.75;;;14.40;99.90;;;;;;5006604;28;20026;-78
2022/11/26 11:50:19;;;;;;;13.13;2.03;;;14.40;99.90;;;;;;5006566;28;20103;-75
2022/11/26 11:53:14;;;;;;;12.05;1.90;;;14.50;99.90;;;;;;5006812;28;20018;-75
2022/11/26 11:56:13;;;;;;;14.15;2.10;;;14.40;99.90;;;;;;5007180;28;20066;-74
2022/11/26 11:59:11;;;;;;;22.80;2.45;;;14.30;99.90;;;;;;5006815;28;20041;-75
2022/11/26 12:02:14;;;;;;;14.95;2.03;;;14.30;99.90;;;;;;5006650;28;20093;-75
2022/11/26 12:04:46;;;;;;;12.07;2.10;;;14.20;99.90;;;;;;5005635;28;20033;-75
2022/11/26 12:07:33;;;;;;;15.73;2.15;;;14.20;99.90;;;;;;5005564;28;20076;-75
2022/11/26 12:10:12;;;;;;;18.77;2.97;;;14.10;99.90;;;;;;5006344;28;20137;-75
2022/11/26 12:12:46;;;;;;;13.77;2.30;;;14.00;99.90;;;;;;5006414;28;20029;-75
2022/11/26 12:15:14;;;;;;;12.68;2.10;;;13.90;99.90;;;;;;5005492;28;20039;-74
2022/11/26 12:17:48;;;;;;;13.18;2.28;;;13.90;99.90;;;;;;5007186;28;20105;-75
2022/11/26 12:20:29;;;;;;;14.57;2.58;;;13.80;99.90;;;;;;5006684;28;20065;-75
2022/11/26 12:23:14;;;;;;;12.73;2.50;;;13.90;99.90;;;;;;5006913;28;20033;-75
2022/11/26 12:25:39;;;;;;;14.88;2.38;;;14.00;99.90;;;;;;5006682;28;20026;-76
2022/11/26 12:28:16;;;;;;;17.77;2.15;;;14.00;99.90;;;;;;5039020;28;20091;-75
2022/11/26 12:30:52;;;;;;;12.93;2.15;;;14.10;99.90;;;;;;5008231;28;20524;-74
2022/11/26 12:33:42;;;;;;;14.80;1.90;;;14.10;99.90;;;;;;5016224;28;20128;-75
2022/11/26 12:36:26;;;;;;;;;;;14.10;99.90;;;;;;5008284;28;20527;-76
2022/11/26 12:39:02;;;;;;;13.68;1.85;;;14.00;99.90;;;;;;5049484;28;20429;-75
2022/11/26 12:41:46;;;;;;;16.35;2.00;;;13.90;99.90;;;;;;5012872;28;20132;-75
2022/11/26 12:44:39;;;;;;;16.77;2.25;;;13.80;99.90;;;;;;5019708;28;20030;-76
2022/11/26 12:47:35;;;;;;;13.38;2.22;;;13.80;99.90;;;;;;5007510;28;20544;-76
2022/11/26 12:50:01;;;;;;;12.85;2.20;;;13.80;99.90;;;;;;5012173;28;20037;-74
2022/11/26 12:52:41;;;;;;;13.23;2.05;;;13.80;99.90;;;;;;5016948;28;20034;-75
2022/11/26 12:55:20;;;;;;;12.88;2.65;;;13.70;99.90;;;;;;5022876;28;20084;-75
2022/11/26 12:57:53;;;;;;;15.82;2.42;;;13.60;99.90;;;;;;5036784;28;21259;-77